createdAt,value
2019-03-12T00:00:01.531Z,83.53
2019-03-12T00:05:02.587Z,83.55
2019-03-12T00:10:03.069Z,83.56
2019-03-12T00:15:02.451Z,83.59
2019-03-12T00:20:02.893Z,83.58
2019-03-12T00:25:03.358Z,83.57
2019-03-12T00:30:02.757Z,83.6
2019-03-12T00:35:03.243Z,83.63
2019-03-12T00:40:02.722Z,83.59
2019-03-12T00:45:03.139Z,83.6
2019-03-12T00:50:02.477Z,83.64
2019-03-12T00:55:02.868Z,83.65
2019-03-12T01:00:03.322Z,83.66
2019-03-12T01:05:02.788Z,83.66
2019-03-12T01:10:03.267Z,83.65
2019-03-12T01:15:02.653Z,83.66
2019-03-12T01:20:03.023Z,83.66
2019-03-12T01:25:02.353Z,83.68
2019-03-12T01:30:02.747Z,83.75
2019-03-12T01:35:03.238Z,83.74
2019-03-12T01:40:02.721Z,83.76
2019-03-12T01:45:03.095Z,83.79
2019-03-12T01:50:02.485Z,83.79
2019-03-12T01:55:02.863Z,83.82
2019-03-12T02:00:03.312Z,83.86
2019-03-12T02:05:02.700Z,83.89
2019-03-12T02:10:03.154Z,83.89
2019-03-12T02:15:02.554Z,83.9
2019-03-12T02:20:03.028Z,83.91
2019-03-12T02:25:02.414Z,83.92
2019-03-12T02:30:02.752Z,83.93
2019-03-12T02:35:03.206Z,83.91
2019-03-12T02:40:01.944Z,83.93
2019-03-12T02:45:03.381Z,83.92
2019-03-12T02:50:02.811Z,83.93
2019-03-12T02:55:03.227Z,83.89
2019-03-12T03:00:02.589Z,83.89
2019-03-12T03:05:02.991Z,83.9
2019-03-12T03:10:02.410Z,83.89
2019-03-12T03:15:02.739Z,83.86
2019-03-12T03:20:03.202Z,83.84
2019-03-12T03:25:02.607Z,83.85
2019-03-12T03:30:02.948Z,83.81
2019-03-12T03:35:03.478Z,83.84
2019-03-12T03:40:03.006Z,83.8
2019-03-12T03:45:02.478Z,83.84
2019-03-12T03:50:02.897Z,83.83
2019-03-12T03:55:03.371Z,83.83
2019-03-12T04:00:02.758Z,83.85
2019-03-12T04:05:03.185Z,83.88
2019-03-12T04:10:02.711Z,83.86
2019-03-12T04:15:03.148Z,83.9
2019-03-12T04:20:02.557Z,83.93
2019-03-12T04:25:02.919Z,84.03
2019-03-12T04:30:03.354Z,84.08
2019-03-12T04:35:02.762Z,84.16
2019-03-12T04:40:03.217Z,84.15
2019-03-12T04:45:02.648Z,84.17
2019-03-12T04:50:03.080Z,84.17
2019-03-12T04:55:02.492Z,84.22
2019-03-12T05:00:02.854Z,84.26
2019-03-12T05:05:03.283Z,84.28
2019-03-12T05:10:02.693Z,84.3
2019-03-12T05:15:03.051Z,84.34
2019-03-12T05:20:02.461Z,84.34
2019-03-12T05:25:02.841Z,84.37
2019-03-12T05:30:03.206Z,84.39
2019-03-12T05:35:02.560Z,84.42
2019-03-12T05:40:03.006Z,84.46
2019-03-12T05:45:02.426Z,84.44
2019-03-12T05:50:02.818Z,84.45
2019-03-12T05:55:03.221Z,84.44
2019-03-12T06:00:01.814Z,84.46
2019-03-12T06:05:03.178Z,84.48
2019-03-12T06:10:02.589Z,84.48
2019-03-12T06:15:02.935Z,84.5
2019-03-12T06:20:03.384Z,84.63
2019-03-12T06:25:02.892Z,84.62
2019-03-12T06:30:03.240Z,84.61
2019-03-12T06:35:02.714Z,84.69
2019-03-12T06:40:03.206Z,84.71
2019-03-12T06:45:02.530Z,84.78
2019-03-12T06:50:02.965Z,84.79
2019-03-12T06:55:01.500Z,84.84
2019-03-12T07:00:02.047Z,84.86
2019-03-12T07:05:02.455Z,84.9
2019-03-12T07:10:02.902Z,84.97
2019-03-12T07:15:03.442Z,85.01
2019-03-12T07:20:02.865Z,85.05
2019-03-12T07:25:03.306Z,85.09
2019-03-12T07:30:02.714Z,85.1
2019-03-12T07:35:03.074Z,85.1
2019-03-12T07:40:02.578Z,85.08
2019-03-12T07:45:03.031Z,85.08
2019-03-12T07:50:02.445Z,85.08
2019-03-12T07:55:02.892Z,85.05
2019-03-12T08:00:03.338Z,85.06
2019-03-12T08:05:02.845Z,85.06
2019-03-12T08:10:03.293Z,85.09
2019-03-12T08:15:02.721Z,85.09
2019-03-12T08:20:03.167Z,85.05
2019-03-12T08:25:02.610Z,85.04
2019-03-12T08:30:02.939Z,85.06
2019-03-12T08:35:03.362Z,85.05
2019-03-12T08:40:02.772Z,85.07
2019-03-12T08:45:03.131Z,85.11
2019-03-12T08:50:02.535Z,85.12
2019-03-12T08:55:04.226Z,85.15
2019-03-12T09:00:02.052Z,85.12
2019-03-12T09:05:01.650Z,85.16
2019-03-12T09:10:02.285Z,85.13
2019-03-12T09:15:02.727Z,85.11
2019-03-12T09:20:03.153Z,85.09
2019-03-12T09:25:02.574Z,85.06
2019-03-12T09:30:03.028Z,85.02
2019-03-12T09:35:02.469Z,84.91
2019-03-12T09:40:02.873Z,84.85
2019-03-12T09:45:03.320Z,84.75
2019-03-12T09:50:02.740Z,84.71
2019-03-12T09:55:04.915Z,84.65
2019-03-12T10:00:14.996Z,84.62
2019-03-12T10:05:02.748Z,84.58
2019-03-12T10:10:03.186Z,84.53
2019-03-12T10:15:02.549Z,84.43
2019-03-12T10:20:02.139Z,84.41
2019-03-12T10:25:02.588Z,84.25
2019-03-12T10:30:02.931Z,84.23
2019-03-12T10:35:03.353Z,84.22
2019-03-12T10:40:02.770Z,84.18
2019-03-12T10:45:03.118Z,84.07
2019-03-12T10:50:02.527Z,84.02
2019-03-12T10:55:12.363Z,83.92
2019-03-12T11:00:03.159Z,83.71
2019-03-12T11:05:02.526Z,83.58
2019-03-12T11:10:02.968Z,83.5
2019-03-12T11:15:02.706Z,83.54
2019-03-12T11:20:03.152Z,83.5
2019-03-12T11:25:02.503Z,83.39
2019-03-12T11:30:02.907Z,83.26
2019-03-12T11:35:03.382Z,83.15
2019-03-12T11:40:03.043Z,83.13
2019-03-12T11:45:02.681Z,83.02
2019-03-12T11:50:03.158Z,82.94
2019-03-12T11:55:02.546Z,82.79
2019-03-12T12:00:02.956Z,82.58
2019-03-12T12:05:02.327Z,82.56
2019-03-12T12:10:02.790Z,82.41
2019-03-12T12:15:03.215Z,82.46
2019-03-12T12:20:02.626Z,82.52
2019-03-12T12:25:02.144Z,82.43
2019-03-12T12:30:02.580Z,82.38
2019-03-12T12:35:02.927Z,82.23
2019-03-12T12:40:02.386Z,82.08
2019-03-12T12:45:02.782Z,82.1
2019-03-12T12:50:03.135Z,81.93
2019-03-12T12:55:02.549Z,81.55
2019-03-12T13:00:02.895Z,81.45
2019-03-12T13:05:03.221Z,81.16
2019-03-12T13:10:02.650Z,81.28
2019-03-12T13:15:02.995Z,81.21
2019-03-12T13:20:02.410Z,81.1
2019-03-12T13:25:02.756Z,80.86
2019-03-12T13:30:03.089Z,80.78
2019-03-12T13:35:02.507Z,80.81
2019-03-12T13:40:02.962Z,80.74
2019-03-12T13:45:02.534Z,80.75
2019-03-12T13:50:03.142Z,80.56
2019-03-12T13:55:02.894Z,80.29
2019-03-12T14:00:02.383Z,80.31
2019-03-12T14:05:02.722Z,80.39
2019-03-12T14:10:03.160Z,80.41
2019-03-12T14:15:02.577Z,80.47
2019-03-12T14:20:03.015Z,80.46
2019-03-12T14:25:02.445Z,80.46
2019-03-12T14:30:02.921Z,80.57
2019-03-12T14:35:03.366Z,80.71
2019-03-12T14:40:02.879Z,80.95
2019-03-12T14:45:03.330Z,81.12
2019-03-12T14:50:02.717Z,81.02
2019-03-12T14:55:03.147Z,80.8
2019-03-12T15:00:02.602Z,80.96
2019-03-12T15:05:03.025Z,81.16
2019-03-12T15:10:02.437Z,81.21
2019-03-12T15:15:02.775Z,81.48
2019-03-12T15:20:03.221Z,81.57
2019-03-12T15:25:02.567Z,81.51
2019-03-12T15:30:02.976Z,81.52
2019-03-12T15:35:02.319Z,81.49
2019-03-12T15:40:02.760Z,81.61
2019-03-12T15:45:03.184Z,81.71
2019-03-12T15:50:02.911Z,81.87
2019-03-12T15:55:03.356Z,81.95
2019-03-12T16:00:02.354Z,82.01
2019-03-12T16:05:01.920Z,82.04
2019-03-12T16:10:02.316Z,82.07
2019-03-12T16:15:02.765Z,82.11
2019-03-12T16:20:03.232Z,82.1
2019-03-12T16:25:02.645Z,82.12
2019-03-12T16:30:03.175Z,82.16
2019-03-12T16:35:02.642Z,82.15
2019-03-12T16:40:03.050Z,82.18
2019-03-12T16:45:02.479Z,82.13
2019-03-12T16:50:02.915Z,82.11
2019-03-12T16:55:03.358Z,82.08
2019-03-12T17:00:08.237Z,82.04
2019-03-12T17:05:07.953Z,82.1
2019-03-12T17:10:02.320Z,82.12
2019-03-12T17:15:02.666Z,82.15
2019-03-12T17:20:08.122Z,82.11
2019-03-12T17:25:02.536Z,82.11
2019-03-12T17:30:02.987Z,82.12
2019-03-12T17:35:02.619Z,82.12
2019-03-12T17:40:03.033Z,82.12
2019-03-12T17:45:02.450Z,82.06
2019-03-12T17:50:02.795Z,81.94
2019-03-12T17:55:03.153Z,81.91
2019-03-12T18:00:02.560Z,81.89
2019-03-12T18:05:02.935Z,81.88
2019-03-12T18:10:02.446Z,81.83
2019-03-12T18:15:02.804Z,81.63
2019-03-12T18:20:03.208Z,81.7
2019-03-12T18:25:02.630Z,81.79
2019-03-12T18:30:03.079Z,81.85
2019-03-12T18:35:02.531Z,81.85
2019-03-12T18:40:02.914Z,81.9
2019-03-12T18:45:03.270Z,81.89
2019-03-12T18:50:02.683Z,81.9
2019-03-12T18:55:03.033Z,81.9
2019-03-12T19:00:02.456Z,81.89
2019-03-12T19:05:02.792Z,81.86
2019-03-12T19:10:03.236Z,81.79
2019-03-12T19:15:02.561Z,81.64
2019-03-12T19:20:02.906Z,81.63
2019-03-12T19:25:03.693Z,81.58
2019-03-12T19:30:03.108Z,81.53
2019-03-12T19:35:02.489Z,81.59
2019-03-12T19:40:02.917Z,81.62
2019-03-12T19:45:03.255Z,81.71
2019-03-12T19:50:02.705Z,81.72
2019-03-12T19:55:03.126Z,81.84
2019-03-12T20:00:02.461Z,81.89
2019-03-12T20:05:02.892Z,81.91
2019-03-12T20:10:02.540Z,81.95
2019-03-12T20:15:02.888Z,82.03
2019-03-12T20:20:03.315Z,82.08
2019-03-12T20:25:02.705Z,82.15
2019-03-12T20:30:03.066Z,82.19
2019-03-12T20:35:04.989Z,82.36
2019-03-12T20:40:02.707Z,82.37
2019-03-12T20:45:03.054Z,82.37
2019-03-12T20:50:03.149Z,82.33
2019-03-12T20:55:01.838Z,82.3
2019-03-12T21:00:03.255Z,82.24
2019-03-12T21:05:02.674Z,82.13
2019-03-12T21:10:03.110Z,82.08
2019-03-12T21:15:02.553Z,82.13
2019-03-12T21:20:02.185Z,82.12
2019-03-12T21:25:02.601Z,82.11
2019-03-12T21:30:03.047Z,82.29
2019-03-12T21:35:02.466Z,82.29
2019-03-12T21:40:02.914Z,82.28
2019-03-12T21:45:03.247Z,82.4
2019-03-12T21:50:02.685Z,82.49
2019-03-12T21:55:03.105Z,82.59
2019-03-12T22:00:02.525Z,82.72
2019-03-12T22:05:02.876Z,82.89
2019-03-12T22:10:03.338Z,82.95
2019-03-12T22:15:02.654Z,83.01
2019-03-12T22:20:03.126Z,83.1
2019-03-12T22:25:02.487Z,83.21
2019-03-12T22:30:02.827Z,83.24
2019-03-12T22:35:03.182Z,83.29
2019-03-12T22:40:02.583Z,83.43
2019-03-12T22:45:02.935Z,83.45
2019-03-12T22:50:03.275Z,83.44
2019-03-12T22:55:04.143Z,83.47
2019-03-12T23:00:01.820Z,83.45
2019-03-12T23:05:03.172Z,83.5
2019-03-12T23:10:01.751Z,83.52
2019-03-12T23:15:03.135Z,83.53
2019-03-12T23:20:02.479Z,83.58
2019-03-12T23:25:02.906Z,83.62
2019-03-12T23:30:03.230Z,83.58
2019-03-12T23:35:02.684Z,83.62
2019-03-12T23:40:03.127Z,83.64
2019-03-12T23:45:02.525Z,83.64
2019-03-12T23:50:02.857Z,83.67
2019-03-12T23:55:03.173Z,83.75
